createdAt,value
2018-04-12T00:02:07.857Z,16.10
2018-04-12T00:04:36.119Z,17.80
2018-04-12T00:07:04.406Z,15.20
2018-04-12T00:09:32.671Z,17.87
2018-04-12T00:12:00.959Z,16.93
2018-04-12T00:14:29.222Z,18.00
2018-04-12T00:16:57.493Z,17.17
2018-04-12T00:19:25.762Z,18.87
2018-04-12T00:21:54.014Z,16.20
2018-04-12T00:24:23.057Z,17.30
2018-04-12T00:26:51.347Z,18.67
2018-04-12T00:29:19.600Z,18.53
2018-04-12T00:31:47.878Z,20.37
2018-04-12T00:34:16.141Z,18.37
2018-04-12T00:36:44.446Z,19.97
2018-04-12T00:39:12.707Z,18.37
2018-04-12T00:41:40.983Z,21.13
2018-04-12T00:44:09.243Z,19.10
2018-04-12T00:46:37.503Z,19.03
2018-04-12T00:49:05.759Z,19.40
2018-04-12T00:51:34.044Z,19.60
2018-04-12T00:54:06.310Z,19.10
2018-04-12T00:56:34.593Z,21.50
2018-04-12T00:59:02.858Z,21.10
2018-04-12T01:01:31.159Z,22.60
2018-04-12T01:03:59.419Z,21.50
2018-04-12T01:06:27.684Z,24.37
2018-04-12T01:08:55.968Z,23.70
2018-04-12T01:11:24.242Z,24.27
2018-04-12T01:13:52.498Z,22.70
2018-04-12T01:16:21.536Z,27.07
2018-04-12T01:18:49.818Z,27.10
2018-04-12T01:21:18.114Z,29.37
2018-04-12T01:23:46.387Z,26.40
2018-04-12T01:26:14.651Z,29.43
2018-04-12T01:28:42.907Z,30.53
2018-04-12T01:31:11.205Z,34.00
2018-04-12T01:33:39.484Z,36.10
2018-04-12T01:36:07.794Z,35.00
2018-04-12T01:38:36.060Z,39.77
2018-04-12T01:41:04.327Z,33.67
2018-04-12T01:43:32.632Z,34.13
2018-04-12T01:46:01.694Z,37.37
2018-04-12T01:48:29.938Z,41.17
2018-04-12T01:50:58.216Z,39.57
2018-04-12T01:53:26.470Z,41.40
2018-04-12T01:55:54.749Z,32.07
2018-04-12T01:58:23.011Z,37.07
2018-04-12T02:00:52.042Z,42.30
2018-04-12T02:03:20.309Z,37.50
2018-04-12T02:05:48.575Z,40.07
2018-04-12T02:08:16.836Z,43.07
2018-04-12T02:10:45.115Z,37.10
2018-04-12T02:13:13.390Z,47.47
2018-04-12T02:15:42.423Z,45.60
2018-04-12T02:18:10.704Z,44.43
2018-04-12T02:20:38.984Z,47.53
2018-04-12T02:23:07.256Z,46.57
2018-04-12T02:25:35.537Z,47.37
2018-04-12T02:28:03.844Z,49.43
2018-04-12T02:30:33.610Z,50.27
2018-04-12T02:33:01.915Z,43.97
2018-04-12T02:35:30.203Z,49.63
2018-04-12T02:37:58.466Z,47.43
2018-04-12T02:40:26.756Z,49.67
2018-04-12T02:42:55.067Z,50.33
2018-04-12T02:45:23.340Z,52.73
2018-04-12T02:47:51.614Z,50.10
2018-04-12T02:50:20.684Z,57.30
2018-04-12T02:52:50.480Z,57.70
2018-04-12T02:55:18.756Z,56.50
2018-04-12T02:57:47.032Z,51.70
2018-04-12T03:00:15.319Z,66.20
2018-04-12T03:02:43.596Z,51.53
2018-04-12T03:05:11.869Z,55.87
2018-04-12T03:07:40.143Z,55.70
2018-04-12T03:10:08.440Z,57.30
2018-04-12T03:12:36.710Z,50.20
2018-04-12T03:15:05.770Z,55.07
2018-04-12T03:17:34.043Z,51.30
2018-04-12T03:20:02.321Z,51.40
2018-04-12T03:22:30.583Z,52.77
2018-04-12T03:24:58.867Z,52.87
2018-04-12T03:27:27.134Z,50.53
2018-04-12T03:29:55.418Z,53.07
2018-04-12T03:32:23.712Z,54.03
2018-04-12T03:34:51.994Z,56.33
2018-04-12T03:37:20.253Z,51.77
2018-04-12T03:39:48.530Z,49.87
2018-04-12T03:42:16.825Z,52.90
2018-04-12T03:44:45.083Z,51.87
2018-04-12T03:47:13.352Z,54.93
2018-04-12T03:49:41.635Z,53.33
2018-04-12T03:52:10.672Z,56.13
2018-04-12T03:54:39.708Z,62.13
2018-04-12T03:57:07.985Z,51.93
2018-04-12T03:59:36.259Z,47.57
2018-04-12T04:02:04.516Z,50.20
2018-04-12T04:04:32.793Z,53.00
2018-04-12T04:07:01.101Z,48.40
2018-04-12T04:09:29.368Z,51.57
2018-04-12T04:11:57.661Z,49.37
2018-04-12T04:14:38.360Z,50.23
2018-04-12T04:17:19.286Z,44.50
2018-04-12T04:22:52.895Z,43.17
2018-04-12T04:25:21.522Z,47.57
2018-04-12T04:27:49.798Z,51.67
2018-04-12T04:30:18.070Z,51.73
2018-04-12T04:32:46.344Z,49.73
2018-04-12T04:35:14.688Z,53.30
2018-04-12T04:37:42.954Z,52.13
2018-04-12T04:40:11.219Z,54.67
2018-04-12T04:42:39.528Z,51.50
2018-04-12T04:45:07.835Z,50.70
2018-04-12T04:47:36.103Z,55.77
2018-04-12T04:50:04.372Z,53.77
2018-04-12T04:52:32.626Z,52.23
2018-04-12T04:55:00.908Z,63.83
2018-04-12T04:57:29.183Z,46.00
2018-04-12T04:59:57.474Z,46.47
2018-04-12T05:02:25.933Z,48.63
2018-04-12T05:04:54.193Z,54.27
2018-04-12T05:07:22.464Z,59.50
2018-04-12T05:09:50.797Z,58.50
2018-04-12T05:12:19.085Z,57.67
2018-04-12T05:14:47.365Z,53.00
2018-04-12T05:17:16.445Z,52.07
2018-04-12T05:19:44.736Z,54.13
2018-04-12T05:22:13.022Z,57.67
2018-04-12T05:24:42.362Z,56.13
2018-04-12T05:27:10.693Z,54.83
2018-04-12T05:29:39.001Z,51.73
2018-04-12T05:32:07.276Z,54.90
2018-04-12T05:34:35.569Z,52.70
2018-04-12T05:37:03.860Z,55.77
2018-04-12T05:39:32.166Z,49.23
2018-04-12T05:42:00.434Z,54.90
2018-04-12T05:44:28.716Z,54.20
2018-04-12T05:46:57.075Z,53.43
2018-04-12T05:49:25.352Z,59.17
2018-04-12T05:51:53.634Z,61.37
2018-04-12T05:54:22.010Z,66.77
2018-04-12T05:56:50.299Z,53.40
2018-04-12T05:59:18.580Z,58.80
2018-04-12T06:01:46.871Z,63.10
2018-04-12T06:04:15.916Z,54.60
2018-04-12T06:06:44.243Z,59.20
2018-04-12T06:09:13.411Z,61.57
2018-04-12T06:11:42.825Z,56.90
2018-04-12T06:14:11.181Z,54.87
2018-04-12T06:16:39.566Z,63.43
2018-04-12T06:19:08.646Z,67.13
2018-04-12T06:21:36.941Z,57.00
2018-04-12T06:24:05.241Z,64.40
2018-04-12T06:26:33.528Z,72.63
2018-04-12T06:29:03.146Z,61.67
2018-04-12T06:31:32.206Z,59.00
2018-04-12T06:34:01.236Z,62.50
2018-04-12T06:36:29.764Z,60.90
2018-04-12T06:38:58.264Z,64.37
2018-04-12T06:41:26.545Z,61.17
2018-04-12T06:43:55.601Z,61.13
2018-04-12T06:46:23.878Z,59.97
2018-04-12T06:48:52.275Z,55.83
2018-04-12T06:51:20.549Z,60.40
2018-04-12T06:53:48.824Z,64.70
2018-04-12T06:56:17.137Z,62.00
2018-04-12T06:58:46.237Z,61.10
2018-04-12T07:01:15.486Z,61.73
2018-04-12T07:03:44.321Z,44.40
2018-04-12T07:06:12.734Z,69.63
2018-04-12T07:08:41.015Z,59.90
2018-04-12T07:11:09.292Z,64.53
2018-04-12T07:13:40.049Z,53.27
2018-04-12T07:16:08.347Z,61.43
2018-04-12T07:18:36.661Z,57.13
2018-04-12T07:21:05.706Z,56.90
2018-04-12T07:23:34.200Z,63.97
2018-04-12T07:26:03.325Z,59.73
2018-04-12T07:28:31.634Z,58.73
2018-04-12T07:30:59.905Z,59.27
2018-04-12T07:33:28.190Z,61.93
2018-04-12T07:35:56.584Z,55.37
2018-04-12T07:38:24.871Z,59.33
2018-04-12T07:40:53.155Z,54.70
2018-04-12T07:43:21.443Z,52.80
2018-04-12T07:45:49.771Z,55.13
2018-04-12T07:48:18.068Z,50.90
2018-04-12T07:50:46.434Z,62.50
2018-04-12T07:53:14.758Z,51.00
2018-04-12T07:55:43.022Z,56.60
2018-04-12T07:58:12.266Z,50.90
2018-04-12T08:00:40.546Z,51.87
2018-04-12T08:03:08.840Z,52.23
2018-04-12T08:05:37.113Z,55.83
2018-04-12T08:08:05.402Z,55.80
2018-04-12T08:10:33.677Z,52.30
2018-04-12T08:13:01.950Z,53.70
2018-04-12T08:15:30.219Z,51.80
2018-04-12T08:17:58.486Z,44.27
2018-04-12T08:20:26.747Z,49.90
2018-04-12T08:22:55.068Z,49.90
2018-04-12T08:25:23.368Z,46.10
2018-04-12T08:27:51.718Z,44.83
2018-04-12T08:30:19.974Z,48.30
2018-04-12T08:32:48.457Z,44.97
2018-04-12T08:35:16.754Z,47.90
2018-04-12T08:37:45.021Z,44.63
2018-04-12T08:40:13.291Z,43.00
2018-04-12T08:42:41.569Z,44.33
2018-04-12T08:45:09.861Z,44.50
2018-04-12T08:47:38.239Z,45.40
2018-04-12T08:50:06.533Z,42.40
2018-04-12T08:52:35.822Z,41.37
2018-04-12T08:55:04.142Z,43.30
2018-04-12T08:57:33.222Z,46.43
2018-04-12T09:00:02.377Z,40.77
2018-04-12T09:02:30.653Z,39.87
2018-04-12T09:04:58.945Z,41.47
2018-04-12T09:07:27.280Z,37.53
2018-04-12T09:09:55.561Z,37.97
2018-04-12T09:12:23.875Z,36.90
2018-04-12T09:14:52.243Z,41.20
2018-04-12T09:17:20.534Z,36.67
2018-04-12T09:19:48.844Z,40.83
2018-04-12T09:22:17.892Z,35.00
2018-04-12T09:24:46.180Z,38.20
2018-04-12T09:27:14.458Z,34.30
2018-04-12T09:29:43.550Z,35.37
2018-04-12T09:32:11.845Z,31.90
2018-04-12T09:34:40.878Z,30.40
2018-04-12T09:37:09.154Z,33.40
2018-04-12T09:39:37.470Z,34.20
2018-04-12T09:42:05.879Z,32.80
2018-04-12T09:44:35.040Z,33.87
2018-04-12T09:47:03.336Z,34.40
2018-04-12T09:49:32.374Z,32.83
2018-04-12T09:52:00.644Z,33.70
2018-04-12T09:54:28.998Z,31.10
2018-04-12T09:56:58.300Z,30.53
2018-04-12T09:59:27.381Z,30.73
2018-04-12T10:02:01.668Z,31.90
2018-04-12T10:04:30.739Z,33.90
2018-04-12T10:07:05.170Z,31.47
2018-04-12T10:09:33.480Z,29.80
2018-04-12T10:12:01.850Z,31.20
2018-04-12T10:14:30.144Z,30.90
2018-04-12T10:16:59.296Z,30.73
2018-04-12T10:19:27.584Z,32.37
2018-04-12T10:21:55.914Z,32.07
2018-04-12T10:24:25.006Z,31.60
2018-04-12T10:26:54.048Z,32.93
2018-04-12T10:29:22.325Z,29.90
2018-04-12T10:31:50.616Z,21.70
2018-04-12T10:34:19.717Z,20.73
2018-04-12T10:36:48.033Z,23.60
2018-04-12T10:39:16.322Z,22.83
2018-04-12T10:41:44.856Z,22.87
2018-04-12T10:44:13.907Z,22.37
2018-04-12T10:46:42.278Z,22.07
2018-04-12T10:49:11.399Z,20.30
2018-04-12T10:51:39.693Z,21.83
2018-04-12T10:54:08.023Z,23.97
2018-04-12T10:56:36.314Z,20.80
2018-04-12T10:59:05.829Z,23.00
2018-04-12T11:01:34.114Z,19.17
2018-04-12T11:04:02.452Z,19.40
2018-04-12T11:06:30.764Z,19.13
2018-04-12T11:08:59.135Z,21.60
2018-04-12T11:11:27.825Z,18.20
2018-04-12T11:13:56.204Z,18.20
2018-04-12T11:16:24.491Z,18.33
2018-04-12T11:18:52.844Z,17.70
2018-04-12T11:21:21.903Z,18.83
2018-04-12T11:23:51.015Z,21.30
2018-04-12T11:26:19.650Z,18.13
2018-04-12T11:28:47.977Z,18.40
2018-04-12T11:31:16.244Z,18.70
2018-04-12T11:33:44.524Z,19.07
2018-04-12T11:36:12.817Z,17.80
2018-04-12T11:38:41.111Z,18.30
2018-04-12T11:41:09.394Z,16.77
2018-04-12T11:43:37.681Z,19.20
2018-04-12T11:46:05.958Z,17.43
2018-04-12T11:48:34.254Z,16.67
2018-04-12T11:51:02.538Z,17.90
2018-04-12T11:53:31.597Z,18.30
2018-04-12T11:55:59.928Z,19.93
2018-04-12T11:58:28.958Z,18.90
2018-04-12T12:00:57.268Z,18.80
2018-04-12T12:03:25.577Z,17.97
2018-04-12T12:05:53.927Z,18.10
2018-04-12T12:08:22.982Z,15.87
2018-04-12T12:10:52.387Z,15.73
2018-04-12T12:13:20.771Z,15.70
2018-04-12T12:15:49.061Z,17.33
2018-04-12T12:18:17.424Z,15.33
2018-04-12T12:20:45.804Z,16.87
2018-04-12T12:23:14.286Z,15.17
2018-04-12T12:25:42.564Z,14.80
2018-04-12T12:28:10.846Z,13.87
2018-04-12T12:30:39.193Z,16.07
2018-04-12T12:33:07.508Z,16.40
2018-04-12T12:35:35.817Z,14.00
2018-04-12T12:38:05.121Z,16.20
2018-04-12T12:40:33.416Z,16.67
2018-04-12T12:43:01.718Z,18.13
2018-04-12T12:45:30.060Z,14.40
2018-04-12T12:47:58.412Z,14.40
2018-04-12T12:50:26.680Z,15.20
2018-04-12T12:52:54.998Z,15.93
2018-04-12T12:55:23.264Z,18.80
2018-04-12T12:57:51.557Z,14.47
2018-04-12T13:00:19.887Z,18.17
2018-04-12T13:02:48.356Z,14.50
2018-04-12T13:05:16.900Z,16.13
2018-04-12T13:07:45.161Z,13.63
2018-04-12T13:10:13.440Z,14.13
2018-04-12T13:12:42.380Z,14.87
2018-04-12T13:15:12.192Z,13.30
2018-04-12T13:17:41.308Z,14.40
2018-04-12T13:20:10.368Z,14.60
2018-04-12T13:22:38.637Z,12.87
2018-04-12T13:25:06.912Z,11.87
2018-04-12T13:27:35.194Z,14.60
2018-04-12T13:30:03.575Z,12.30
2018-04-12T13:32:31.935Z,12.83
2018-04-12T13:35:00.215Z,12.80
2018-04-12T13:37:28.509Z,11.47
2018-04-12T13:39:56.884Z,10.80
2018-04-12T13:42:25.190Z,12.77
2018-04-12T13:44:53.586Z,12.60
2018-04-12T13:47:22.623Z,12.40
2018-04-12T13:49:50.895Z,10.27
2018-04-12T13:52:22.779Z,5.63
2018-04-12T13:54:51.047Z,6.60
2018-04-12T13:57:19.318Z,2.87
2018-04-12T13:59:47.604Z,2.27
2018-04-12T14:02:15.874Z,3.27
2018-04-12T14:04:44.208Z,2.50
2018-04-12T14:07:12.529Z,2.30
2018-04-12T14:09:40.805Z,1.97
2018-04-12T14:12:09.482Z,2.00
2018-04-12T14:14:38.507Z,2.23
2018-04-12T14:17:06.795Z,2.70
2018-04-12T14:19:35.836Z,2.40
2018-04-12T14:22:04.301Z,1.90
2018-04-12T14:24:32.594Z,2.70
2018-04-12T14:27:00.871Z,2.23
2018-04-12T14:29:29.145Z,1.90
2018-04-12T14:31:57.437Z,2.47
2018-04-12T14:34:25.719Z,2.03
2018-04-12T14:36:54.018Z,2.03
2018-04-12T14:39:22.324Z,2.40
2018-04-12T14:41:52.295Z,2.20
2018-04-12T14:44:20.601Z,2.27
2018-04-12T14:46:48.920Z,2.07
2018-04-12T14:49:17.245Z,1.40
2018-04-12T14:51:45.586Z,2.80
2018-04-12T14:54:19.089Z,2.80
2018-04-12T14:56:43.142Z,3.00
2018-04-12T14:59:11.444Z,2.50
2018-04-12T15:01:39.730Z,2.50
2018-04-12T15:04:08.022Z,2.30
2018-04-12T15:06:36.321Z,2.20
2018-04-12T15:09:06.289Z,3.07
2018-04-12T15:11:34.549Z,2.10
2018-04-12T15:14:02.828Z,3.10
2018-04-12T15:16:31.103Z,2.80
2018-04-12T15:18:59.401Z,2.47
2018-04-12T15:21:27.661Z,2.83
2018-04-12T15:23:55.927Z,2.47
2018-04-12T15:26:24.187Z,2.93
2018-04-12T15:28:52.443Z,2.30
2018-04-12T15:31:21.489Z,2.60
2018-04-12T15:33:49.881Z,3.10
2018-04-12T15:36:18.138Z,2.80
2018-04-12T15:38:46.531Z,2.20
2018-04-12T15:41:15.822Z,2.40
2018-04-12T15:43:44.101Z,2.70
2018-04-12T15:46:12.417Z,1.93
2018-04-12T15:48:40.707Z,2.20
2018-04-12T15:51:09.761Z,2.17
2018-04-12T15:53:38.128Z,3.40
2018-04-12T15:56:06.408Z,2.30
2018-04-12T15:58:34.681Z,2.67
2018-04-12T16:01:03.040Z,2.60
2018-04-12T16:03:31.301Z,3.47
2018-04-12T16:05:59.713Z,2.67
2018-04-12T16:08:27.974Z,2.57
2018-04-12T16:10:56.284Z,2.50
2018-04-12T16:13:24.596Z,2.70
2018-04-12T16:15:52.874Z,2.83
2018-04-12T16:18:21.944Z,4.10
2018-04-12T16:20:51.003Z,2.83
2018-04-12T16:23:20.137Z,3.53
2018-04-12T16:25:48.801Z,3.07
2018-04-12T16:28:17.096Z,3.67
2018-04-12T16:30:46.119Z,3.87
2018-04-12T16:33:14.412Z,4.00
2018-04-12T16:35:42.673Z,3.17
2018-04-12T16:38:11.708Z,3.50
2018-04-12T16:40:39.988Z,3.80
2018-04-12T16:43:08.261Z,4.10
2018-04-12T16:45:36.546Z,3.70
2018-04-12T16:48:04.821Z,4.33
2018-04-12T16:50:33.066Z,3.77
2018-04-12T16:53:01.402Z,3.83
2018-04-12T16:55:30.443Z,3.67
2018-04-12T16:57:58.730Z,3.37
2018-04-12T17:00:27.008Z,3.47
2018-04-12T17:02:55.388Z,3.97
2018-04-12T17:05:23.659Z,3.53
2018-04-12T17:07:51.916Z,3.77
2018-04-12T17:10:20.296Z,4.07
2018-04-12T17:12:48.577Z,4.10
2018-04-12T17:15:16.979Z,3.53
2018-04-12T17:17:45.255Z,3.53
2018-04-12T17:20:13.561Z,3.10
2018-04-12T17:22:42.610Z,4.30
2018-04-12T17:25:11.504Z,3.40
2018-04-12T17:27:39.792Z,3.47
2018-04-12T17:30:08.062Z,3.83
2018-04-12T17:32:36.331Z,10.97
2018-04-12T17:35:04.658Z,4.07
2018-04-12T17:37:33.700Z,3.73
2018-04-12T17:40:01.984Z,3.60
2018-04-12T17:42:30.257Z,3.60
2018-04-12T17:44:58.529Z,4.23
2018-04-12T17:47:26.794Z,3.50
2018-04-12T17:49:55.052Z,3.60
2018-04-12T17:52:23.350Z,4.17
2018-04-12T17:54:51.640Z,3.53
2018-04-12T17:57:19.925Z,3.17
2018-04-12T17:59:48.176Z,3.40
2018-04-12T18:02:16.444Z,3.80
2018-04-12T18:04:44.710Z,4.67
2018-04-12T18:07:12.977Z,3.67
2018-04-12T18:09:42.010Z,3.83
2018-04-12T18:12:10.286Z,4.77
2018-04-12T18:14:38.557Z,4.30
2018-04-12T18:17:06.804Z,4.10
2018-04-12T18:19:35.138Z,3.97
2018-04-12T18:22:03.387Z,4.10
2018-04-12T18:24:31.662Z,5.20
2018-04-12T18:26:59.946Z,5.43
2018-04-12T18:29:28.206Z,7.70
2018-04-12T18:31:56.498Z,6.10
2018-04-12T18:34:24.753Z,6.70
2018-04-12T18:36:53.144Z,4.67
2018-04-12T18:39:21.418Z,4.83
2018-04-12T18:41:49.701Z,6.07
2018-04-12T18:44:18.302Z,7.20
2018-04-12T18:46:46.612Z,5.63
2018-04-12T18:49:15.656Z,5.03
2018-04-12T18:51:43.928Z,7.17
2018-04-12T18:54:12.217Z,7.27
2018-04-12T18:56:40.486Z,9.60
2018-04-12T18:59:08.740Z,5.50
2018-04-12T19:01:37.037Z,6.57
2018-04-12T19:04:05.300Z,5.93
2018-04-12T19:06:33.577Z,5.53
2018-04-12T19:09:01.843Z,5.70
2018-04-12T19:11:30.115Z,5.87
2018-04-12T19:13:58.389Z,6.50
2018-04-12T19:16:26.657Z,5.90
2018-04-12T19:18:54.948Z,5.63
2018-04-12T19:21:23.210Z,7.20
2018-04-12T19:23:51.484Z,6.80
2018-04-12T19:26:19.758Z,8.80
2018-04-12T19:28:48.034Z,6.70
2018-04-12T19:31:16.299Z,4.87
2018-04-12T19:33:45.333Z,6.27
2018-04-12T19:36:13.630Z,4.90
2018-04-12T19:38:41.891Z,6.43
2018-04-12T19:41:10.197Z,6.37
2018-04-12T19:43:38.468Z,6.60
2018-04-12T19:46:06.740Z,5.80
2018-04-12T19:48:35.078Z,6.17
2018-04-12T19:51:03.351Z,6.10
2018-04-12T19:53:31.625Z,5.70
2018-04-12T19:56:00.017Z,7.20
2018-04-12T19:58:28.292Z,6.37
2018-04-12T20:00:56.553Z,5.00
2018-04-12T20:03:24.838Z,6.27
2018-04-12T20:05:53.131Z,5.53
2018-04-12T20:08:21.406Z,7.03
2018-04-12T20:10:49.660Z,6.73
2018-04-12T20:13:17.935Z,7.73
2018-04-12T20:15:46.208Z,7.53
2018-04-12T20:18:14.475Z,6.87
2018-04-12T20:20:43.509Z,6.50
2018-04-12T20:23:11.856Z,5.80
2018-04-12T20:25:40.116Z,7.20
2018-04-12T20:28:09.153Z,7.20
2018-04-12T20:30:37.438Z,8.03
2018-04-12T20:33:05.732Z,7.47
2018-04-12T20:35:34.012Z,11.50
2018-04-12T20:38:03.064Z,8.30
2018-04-12T20:40:31.353Z,5.07
2018-04-12T20:42:59.607Z,5.10
2018-04-12T20:45:27.872Z,5.43
2018-04-12T20:47:56.133Z,5.40
2018-04-12T20:50:25.163Z,5.90
2018-04-12T20:52:53.422Z,5.37
2018-04-12T20:55:21.710Z,6.23
2018-04-12T20:57:49.973Z,7.73
2018-04-12T21:00:18.230Z,7.37
2018-04-12T21:02:47.255Z,6.47
2018-04-12T21:05:15.540Z,6.20
2018-04-12T21:07:43.804Z,5.80
2018-04-12T21:10:12.065Z,6.00
2018-04-12T21:12:40.343Z,6.40
2018-04-12T21:15:09.395Z,6.00
2018-04-12T21:17:37.698Z,5.00
2018-04-12T21:20:06.727Z,6.00
2018-04-12T21:22:35.006Z,6.30
2018-04-12T21:25:03.278Z,5.13
2018-04-12T21:27:31.556Z,5.70
2018-04-12T21:29:59.823Z,5.20
2018-04-12T21:32:28.086Z,5.00
2018-04-12T21:34:56.369Z,4.93
2018-04-12T21:37:24.657Z,5.70
2018-04-12T21:39:52.925Z,7.10
2018-04-12T21:42:21.184Z,5.27
2018-04-12T21:44:50.214Z,5.60
2018-04-12T21:47:18.745Z,6.47
2018-04-12T21:49:47.813Z,5.23
2018-04-12T21:52:16.092Z,5.50
2018-04-12T21:54:44.353Z,4.87
2018-04-12T21:57:12.614Z,6.83
2018-04-12T21:59:40.876Z,5.67
2018-04-12T22:02:09.142Z,5.73
2018-04-12T22:04:37.417Z,5.67
2018-04-12T22:07:05.691Z,6.13
2018-04-12T22:09:35.218Z,5.90
2018-04-12T22:12:05.268Z,6.50
2018-04-12T22:14:33.585Z,5.80
2018-04-12T22:17:03.598Z,5.00
2018-04-12T22:19:32.679Z,6.67
2018-04-12T22:22:00.952Z,5.27
2018-04-12T22:24:29.224Z,6.13
2018-04-12T22:26:57.485Z,5.17
2018-04-12T22:29:25.759Z,4.60
2018-04-12T22:31:54.020Z,4.60
2018-04-12T22:34:22.298Z,4.30
2018-04-12T22:36:50.552Z,4.90
2018-04-12T22:39:18.837Z,5.17
2018-04-12T22:41:47.214Z,5.33
2018-04-12T22:44:15.488Z,5.10
2018-04-12T22:46:43.750Z,5.80
2018-04-12T22:49:12.013Z,6.00
2018-04-12T22:51:41.036Z,5.60
2018-04-12T22:54:09.304Z,4.20
2018-04-12T22:56:37.561Z,5.07
2018-04-12T22:59:05.833Z,4.23
2018-04-12T23:01:34.921Z,4.40
2018-04-12T23:04:03.959Z,5.13
2018-04-12T23:06:32.244Z,4.13
2018-04-12T23:09:00.497Z,4.70
2018-04-12T23:11:28.762Z,5.60
2018-04-12T23:13:57.034Z,4.67
2018-04-12T23:16:25.295Z,4.57
2018-04-12T23:18:54.318Z,4.27
2018-04-12T23:21:22.593Z,5.40
2018-04-12T23:23:50.843Z,4.83
2018-04-12T23:26:19.871Z,4.50
2018-04-12T23:28:48.156Z,4.50
2018-04-12T23:31:16.415Z,4.43
2018-04-12T23:33:44.698Z,5.47
2018-04-12T23:36:12.945Z,5.33
2018-04-12T23:38:41.221Z,10.70
2018-04-12T23:41:10.264Z,14.60
2018-04-12T23:43:38.527Z,8.20
2018-04-12T23:46:06.789Z,6.80
2018-04-12T23:48:35.072Z,7.43
2018-04-12T23:51:03.350Z,7.93
2018-04-12T23:53:31.642Z,9.03
2018-04-12T23:55:59.902Z,11.50
2018-04-12T23:58:28.174Z,13.03
